Time;durP1;ratioP1;P1;durP2;ratioP2;P2;SDS_P1;SDS_P2;PMS_P1;PMS_P2;Temp;Humidity;BMP_temperature;BMP_pressure;BME280_temperature;BME280_humidity;BME280_pressure;Samples;Min_cycle;Max_cycle;Signal;HPM_P1;HPM_P2
2021/07/09 00:01:48;;;;;;;1.00;0.68;;;17.70;80.20;;;;;;5084744;28;20033;-69
2021/07/09 00:04:15;;;;;;;0.95;0.68;;;17.50;81.20;;;;;;5084696;28;20096;-69
2021/07/09 00:06:41;;;;;;;4.47;0.95;;;17.50;81.70;;;;;;5084491;28;20088;-69
2021/07/09 00:09:07;;;;;;;1.17;0.80;;;17.60;81.60;;;;;;5085314;28;20031;-69
2021/07/09 00:11:33;;;;;;;1.80;0.80;;;17.70;81.40;;;;;;5084980;28;20032;-69
2021/07/09 00:13:58;;;;;;;2.45;0.77;;;17.60;81.10;;;;;;5050505;28;20032;-69
2021/07/09 00:16:24;;;;;;;1.45;0.65;;;17.70;81.20;;;;;;5084313;28;20063;-69
2021/07/09 00:18:49;;;;;;;2.88;0.88;;;17.70;80.80;;;;;;5084229;28;20063;-69
2021/07/09 00:21:15;;;;;;;4.45;0.90;;;17.60;80.70;;;;;;5085067;28;20087;-69
2021/07/09 00:23:41;;;;;;;1.98;0.70;;;17.50;81.10;;;;;;5084805;28;20238;-69
2021/07/09 00:26:07;;;;;;;1.35;0.75;;;17.40;81.30;;;;;;5066822;28;20037;-69
2021/07/09 00:28:32;;;;;;;1.08;0.73;;;17.40;81.40;;;;;;5084679;28;20351;-68
2021/07/09 00:30:58;;;;;;;2.20;0.88;;;17.50;81.10;;;;;;5066701;28;20189;-68
2021/07/09 00:33:24;;;;;;;1.63;0.90;;;17.60;81.00;;;;;;5066418;28;20311;-69
2021/07/09 00:35:49;;;;;;;1.25;0.80;;;17.60;80.50;;;;;;5050237;28;20207;-68
2021/07/09 00:38:15;;;;;;;2.58;0.88;;;17.60;80.20;;;;;;5066686;28;20107;-69
2021/07/09 00:40:40;;;;;;;1.75;0.88;;;17.60;79.80;;;;;;5066574;28;20036;-68
2021/07/09 00:43:06;;;;;;;1.77;0.80;;;17.60;79.60;;;;;;5049628;28;20035;-68
2021/07/09 00:45:32;;;;;;;1.65;0.80;;;17.60;79.80;;;;;;5084445;28;20032;-68
2021/07/09 00:47:57;;;;;;;5.35;0.88;;;17.60;79.40;;;;;;5066557;28;20304;-68
2021/07/09 00:50:23;;;;;;;1.30;0.70;;;17.60;79.40;;;;;;5084348;28;20212;-69
2021/07/09 00:52:48;;;;;;;1.25;0.80;;;17.60;79.40;;;;;;5066533;28;20033;-68
2021/07/09 00:55:15;;;;;;;3.38;1.10;;;17.50;79.20;;;;;;5083725;28;20055;-68
2021/07/09 00:57:42;;;;;;;2.90;0.80;;;17.50;79.20;;;;;;5083893;28;20036;-68
2021/07/09 01:00:11;;;;;;;4.68;1.00;;;17.40;79.10;;;;;;5083690;28;20039;-68
2021/07/09 01:02:37;;;;;;;2.25;0.80;;;17.40;79.20;;;;;;5084264;28;20040;-68
2021/07/09 01:05:04;;;;;;;2.47;0.90;;;17.30;79.30;;;;;;5066446;28;20208;-68
2021/07/09 01:07:29;;;;;;;1.20;0.80;;;17.30;79.50;;;;;;5066306;28;20028;-68
2021/07/09 01:09:55;;;;;;;3.35;0.80;;;17.20;79.90;;;;;;5083711;28;20044;-68
2021/07/09 01:12:20;;;;;;;2.33;1.67;;;17.20;80.20;;;;;;5066420;28;20032;-68
2021/07/09 01:14:46;;;;;;;2.50;0.90;;;17.10;80.60;;;;;;5049953;28;20075;-68
2021/07/09 01:17:13;;;;;;;2.28;0.82;;;17.10;80.40;;;;;;5065865;28;20089;-68
2021/07/09 01:19:38;;;;;;;1.25;0.90;;;17.10;80.50;;;;;;5049279;28;20037;-68
2021/07/09 01:22:05;;;;;;;1.92;0.68;;;17.00;80.50;;;;;;5065702;28;20087;-68
2021/07/09 01:24:31;;;;;;;1.42;0.77;;;17.00;80.60;;;;;;5049203;28;20032;-68
2021/07/09 01:26:56;;;;;;;1.48;0.77;;;16.90;80.90;;;;;;5084033;28;20039;-68
2021/07/09 01:29:22;;;;;;;1.23;0.70;;;17.00;80.90;;;;;;5066144;28;20048;-68
2021/07/09 01:31:47;;;;;;;2.03;0.70;;;16.90;81.10;;;;;;5083508;28;20036;-68
2021/07/09 01:34:13;;;;;;;1.58;0.70;;;17.00;80.50;;;;;;5083393;28;20091;-68
2021/07/09 01:36:38;;;;;;;1.77;0.68;;;16.90;80.40;;;;;;5083281;28;20283;-68
2021/07/09 01:39:04;;;;;;;1.08;0.70;;;16.90;80.40;;;;;;5066091;28;20343;-68
2021/07/09 01:41:29;;;;;;;2.97;1.00;;;17.00;80.40;;;;;;5066072;28;20372;-68
2021/07/09 01:43:55;;;;;;;1.88;0.70;;;16.80;80.60;;;;;;5083299;28;20041;-68
2021/07/09 01:46:20;;;;;;;1.73;0.75;;;16.70;80.70;;;;;;5065707;28;20379;-68
2021/07/09 01:48:46;;;;;;;1.15;0.80;;;16.70;81.20;;;;;;5065524;28;20035;-68
2021/07/09 01:51:11;;;;;;;2.45;0.75;;;16.70;81.40;;;;;;5083740;28;20268;-68
2021/07/09 01:53:37;;;;;;;0.88;0.60;;;16.80;81.00;;;;;;5083728;28;20024;-68
2021/07/09 01:56:03;;;;;;;1.23;0.77;;;16.70;81.30;;;;;;5065218;28;20090;-68
2021/07/09 01:58:28;;;;;;;2.80;0.60;;;16.60;81.80;;;;;;5083145;28;20028;-68
2021/07/09 02:00:54;;;;;;;1.30;0.90;;;16.70;81.20;;;;;;5083106;28;20041;-68
2021/07/09 02:03:19;;;;;;;0.70;0.60;;;16.70;81.00;;;;;;5083116;28;20024;-68
2021/07/09 02:05:45;;;;;;;0.77;0.60;;;16.80;80.80;;;;;;5084117;28;20363;-68
2021/07/09 02:08:10;;;;;;;2.75;0.80;;;16.80;80.60;;;;;;5083200;28;20033;-68
2021/07/09 02:10:38;;;;;;;1.15;0.60;;;16.70;80.70;;;;;;5084039;28;20035;-68
2021/07/09 02:13:03;;;;;;;0.70;0.60;;;16.60;80.80;;;;;;5069523;28;20047;-68
2021/07/09 02:15:31;;;;;;;1.17;0.70;;;16.70;81.00;;;;;;5086700;28;20024;-68
2021/07/09 02:17:57;;;;;;;2.22;0.65;;;16.60;81.20;;;;;;5087651;28;20051;-68
2021/07/09 02:20:23;;;;;;;3.28;0.65;;;16.60;81.40;;;;;;5087052;28;20032;-68
2021/07/09 02:22:49;;;;;;;2.47;0.60;;;16.50;81.60;;;;;;5086876;28;20093;-68
2021/07/09 02:25:15;;;;;;;1.52;0.70;;;16.60;81.20;;;;;;5086904;28;20315;-68
2021/07/09 02:27:42;;;;;;;1.42;0.60;;;16.60;81.40;;;;;;5086630;28;20039;-68
2021/07/09 02:30:11;;;;;;;4.43;0.70;;;16.60;81.40;;;;;;5087020;28;20032;-68
2021/07/09 02:32:38;;;;;;;1.05;0.50;;;16.60;81.50;;;;;;5086908;28;20041;-68
2021/07/09 02:35:05;;;;;;;2.03;0.52;;;16.50;82.00;;;;;;5052554;28;20028;-68
2021/07/09 02:37:30;;;;;;;1.60;0.50;;;16.50;82.10;;;;;;5086552;28;20036;-68
2021/07/09 02:39:56;;;;;;;1.58;0.70;;;16.50;82.10;;;;;;5068456;28;20094;-68
2021/07/09 02:42:21;;;;;;;2.33;0.50;;;16.50;82.20;;;;;;5086238;28;20033;-68
2021/07/09 02:44:47;;;;;;;0.90;0.60;;;16.40;82.40;;;;;;5086693;28;20033;-68
2021/07/09 02:47:13;;;;;;;2.38;0.60;;;16.40;82.70;;;;;;5086209;28;20029;-68
2021/07/09 02:49:39;;;;;;;1.88;0.60;;;16.50;82.20;;;;;;5086158;28;20351;-68
2021/07/09 02:52:05;;;;;;;3.42;0.65;;;16.40;82.50;;;;;;5086253;28;20092;-68
2021/07/09 02:54:30;;;;;;;0.95;0.50;;;16.50;82.40;;;;;;5086030;28;20339;-68
2021/07/09 02:56:56;;;;;;;0.47;0.40;;;16.50;82.10;;;;;;5086292;28;20051;-68
2021/07/09 02:59:22;;;;;;;0.73;0.50;;;16.50;82.00;;;;;;5086466;28;20039;-68
2021/07/09 03:01:47;;;;;;;1.60;0.60;;;16.40;82.50;;;;;;5085970;28;20032;-68
2021/07/09 03:04:13;;;;;;;0.50;0.50;;;16.40;82.40;;;;;;5086184;28;20088;-68
2021/07/09 03:06:38;;;;;;;0.40;0.40;;;16.40;82.40;;;;;;5085843;28;20040;-68
2021/07/09 03:09:08;;;;;;;0.70;0.50;;;16.40;82.50;;;;;;5068863;28;20039;-68
2021/07/09 03:11:34;;;;;;;2.08;0.50;;;16.40;82.30;;;;;;5068424;28;20096;-68
2021/07/09 03:14:00;;;;;;;2.28;0.50;;;16.30;82.80;;;;;;5086010;28;20024;-68
2021/07/09 03:16:25;;;;;;;1.00;0.40;;;16.30;83.10;;;;;;5085739;28;20332;-68
2021/07/09 03:18:51;;;;;;;0.50;0.40;;;16.30;83.10;;;;;;5085414;28;20024;-68
2021/07/09 03:21:16;;;;;;;0.52;0.50;;;16.30;83.00;;;;;;5086013;28;20118;-68
2021/07/09 03:23:42;;;;;;;0.30;0.30;;;16.30;82.80;;;;;;5084935;28;20036;-68
2021/07/09 03:26:07;;;;;;;0.30;0.30;;;16.30;82.90;;;;;;5085781;28;20092;-68
2021/07/09 03:28:33;;;;;;;0.30;0.30;;;16.30;82.30;;;;;;5085361;28;20055;-68
2021/07/09 03:30:58;;;;;;;0.65;0.40;;;16.30;82.00;;;;;;5085326;28;20030;-68
2021/07/09 03:33:24;;;;;;;0.35;0.32;;;16.30;82.30;;;;;;5085835;28;20235;-68
2021/07/09 03:35:52;;;;;;;0.40;0.30;;;16.30;81.90;;;;;;5068151;28;20025;-68
2021/07/09 03:38:20;;;;;;;0.30;0.30;;;16.20;81.00;;;;;;5067613;28;20191;-68
2021/07/09 03:40:46;;;;;;;0.73;0.30;;;16.30;81.80;;;;;;5067324;28;20043;-68
2021/07/09 03:43:11;;;;;;;0.57;0.38;;;16.10;82.40;;;;;;5067886;28;20028;-68
2021/07/09 03:45:37;;;;;;;0.32;0.30;;;16.10;82.30;;;;;;5085296;28;20358;-68
2021/07/09 03:48:03;;;;;;;1.98;0.30;;;16.10;82.40;;;;;;5085508;28;20098;-68
2021/07/09 03:50:29;;;;;;;0.70;0.40;;;16.10;82.40;;;;;;5085361;28;20039;-68
2021/07/09 03:52:54;;;;;;;0.32;0.30;;;16.20;82.00;;;;;;5084886;28;20032;-68
2021/07/09 03:55:20;;;;;;;0.95;0.30;;;16.20;81.90;;;;;;5084639;28;20100;-68
2021/07/09 03:57:45;;;;;;;0.30;0.30;;;16.10;82.50;;;;;;5084738;28;20032;-68
2021/07/09 04:00:11;;;;;;;0.30;0.30;;;16.10;82.30;;;;;;5085838;28;20039;-68
2021/07/09 04:02:37;;;;;;;3.05;0.40;;;16.10;82.00;;;;;;5085136;28;20243;-68
2021/07/09 04:05:03;;;;;;;1.25;0.32;;;16.10;82.30;;;;;;5085066;28;20048;-67
2021/07/09 04:07:29;;;;;;;1.38;0.35;;;16.10;82.50;;;;;;5084667;28;20259;-68
2021/07/09 04:09:55;;;;;;;0.60;0.40;;;16.10;82.60;;;;;;5084579;28;20040;-68
2021/07/09 04:12:21;;;;;;;0.40;0.40;;;16.10;82.20;;;;;;5084449;28;20032;-68
2021/07/09 04:14:46;;;;;;;0.52;0.40;;;16.20;82.30;;;;;;5067501;28;20028;-68
2021/07/09 04:17:12;;;;;;;3.65;0.50;;;16.10;82.30;;;;;;5084747;28;20028;-68
2021/07/09 04:19:37;;;;;;;0.93;0.40;;;16.10;82.30;;;;;;5084560;28;20032;-68
2021/07/09 04:22:03;;;;;;;1.13;0.40;;;16.10;82.40;;;;;;5084449;28;20066;-68
2021/07/09 04:24:28;;;;;;;0.57;0.40;;;16.00;82.70;;;;;;5084498;28;20032;-68
2021/07/09 04:26:54;;;;;;;0.63;0.50;;;16.10;82.30;;;;;;5084749;28;20075;-68
2021/07/09 04:29:19;;;;;;;2.00;0.40;;;16.10;82.10;;;;;;5084750;28;20343;-68
2021/07/09 04:31:45;;;;;;;1.27;0.40;;;16.10;82.50;;;;;;5084120;28;20088;-68
2021/07/09 04:34:10;;;;;;;0.50;0.40;;;16.20;82.40;;;;;;5083632;28;20058;-68
2021/07/09 04:36:36;;;;;;;1.25;0.55;;;16.10;82.30;;;;;;5084155;28;20033;-68
2021/07/09 04:39:02;;;;;;;0.60;0.45;;;16.10;82.60;;;;;;5085036;28;20208;-68
2021/07/09 04:41:27;;;;;;;0.50;0.40;;;16.10;82.50;;;;;;5084381;28;20037;-68
2021/07/09 04:43:53;;;;;;;0.80;0.47;;;16.20;82.80;;;;;;5084008;28;20048;-68
2021/07/09 04:46:18;;;;;;;1.00;0.50;;;16.10;82.70;;;;;;5084412;28;20228;-68
2021/07/09 04:48:44;;;;;;;2.42;0.70;;;16.10;82.90;;;;;;5083905;28;20036;-68
2021/07/09 04:51:10;;;;;;;1.08;0.52;;;16.10;83.30;;;;;;5084362;28;20028;-68
2021/07/09 04:53:35;;;;;;;1.23;0.68;;;16.10;83.20;;;;;;5084355;28;20056;-68
2021/07/09 04:56:01;;;;;;;1.50;0.60;;;16.20;83.00;;;;;;5083642;28;20056;-67
2021/07/09 04:58:26;;;;;;;1.38;0.57;;;16.20;83.00;;;;;;5083850;28;20040;-68
2021/07/09 05:00:52;;;;;;;1.67;0.60;;;16.20;82.80;;;;;;5084017;28;20028;-67
2021/07/09 05:03:17;;;;;;;1.27;0.70;;;16.20;82.60;;;;;;5083592;28;20032;-68
2021/07/09 05:05:43;;;;;;;1.92;0.50;;;16.10;82.70;;;;;;5084344;28;20028;-68
2021/07/09 05:08:08;;;;;;;1.50;1.00;;;16.20;83.00;;;;;;5066152;28;20044;-68
2021/07/09 05:10:34;;;;;;;4.47;0.80;;;16.10;83.00;;;;;;5083880;28;20055;-67
2021/07/09 05:13:00;;;;;;;1.00;0.75;;;16.10;83.30;;;;;;5065787;28;20032;-67
2021/07/09 05:15:25;;;;;;;1.13;0.80;;;16.10;83.40;;;;;;5084037;28;20039;-69
2021/07/09 05:17:51;;;;;;;1.05;0.70;;;16.10;83.60;;;;;;5084177;28;20324;-67
2021/07/09 05:20:16;;;;;;;2.85;1.10;;;16.10;83.50;;;;;;5083929;28;20074;-68
2021/07/09 05:22:42;;;;;;;1.70;1.23;;;16.10;83.20;;;;;;5083468;28;20092;-68
2021/07/09 05:25:08;;;;;;;1.50;0.68;;;16.20;83.50;;;;;;5065832;28;20396;-67
2021/07/09 05:27:34;;;;;;;2.05;0.90;;;16.20;82.70;;;;;;5083652;28;20316;-68
2021/07/09 05:29:59;;;;;;;1.73;0.98;;;16.20;83.00;;;;;;5066340;28;20047;-68
2021/07/09 05:32:25;;;;;;;1.38;0.80;;;16.20;83.00;;;;;;5066348;28;20037;-68
2021/07/09 05:34:52;;;;;;;1.50;0.82;;;16.10;83.00;;;;;;5065550;28;20036;-68
2021/07/09 05:37:17;;;;;;;1.73;0.80;;;16.20;82.50;;;;;;5065608;28;20037;-68
2021/07/09 05:39:43;;;;;;;1.20;0.88;;;16.20;82.30;;;;;;5083149;28;20090;-67
2021/07/09 05:42:09;;;;;;;3.35;1.50;;;16.10;82.40;;;;;;5083764;28;20063;-68
2021/07/09 05:44:34;;;;;;;5.15;0.98;;;16.10;82.60;;;;;;5065959;28;20063;-68
2021/07/09 05:47:00;;;;;;;3.25;1.02;;;16.10;83.00;;;;;;5086238;28;20220;-67
2021/07/09 05:49:25;;;;;;;1.92;1.00;;;16.10;82.70;;;;;;5087171;28;20032;-68
2021/07/09 05:51:51;;;;;;;1.58;0.80;;;16.20;82.60;;;;;;5087355;28;20040;-67
2021/07/09 05:54:16;;;;;;;1.25;0.90;;;16.10;82.60;;;;;;5087632;28;20193;-68
2021/07/09 05:56:42;;;;;;;1.60;0.88;;;16.10;83.10;;;;;;5086895;28;20037;-67
2021/07/09 05:59:07;;;;;;;1.05;0.80;;;16.20;83.00;;;;;;5087475;28;20057;-68
2021/07/09 06:01:33;;;;;;;1.77;0.80;;;16.30;83.00;;;;;;5069223;28;20029;-67
2021/07/09 06:03:58;;;;;;;1.42;0.75;;;16.30;83.10;;;;;;5087264;28;20059;-67
2021/07/09 06:06:24;;;;;;;3.50;0.77;;;16.30;83.40;;;;;;5068910;28;20027;-67
2021/07/09 06:08:49;;;;;;;0.88;0.70;;;16.40;83.30;;;;;;5087716;28;20016;-68
2021/07/09 06:11:15;;;;;;;0.85;0.70;;;16.40;83.40;;;;;;5087198;28;20082;-68
2021/07/09 06:13:41;;;;;;;3.30;0.98;;;16.50;83.00;;;;;;5086527;28;20100;-68
2021/07/09 06:16:06;;;;;;;1.20;0.80;;;16.40;83.10;;;;;;5086546;28;20031;-67
2021/07/09 06:18:32;;;;;;;1.15;0.77;;;16.50;82.50;;;;;;5086001;28;20223;-68
2021/07/09 06:20:58;;;;;;;1.42;0.70;;;16.50;82.20;;;;;;5086975;28;20028;-67
2021/07/09 06:23:24;;;;;;;1.13;0.80;;;16.40;81.90;;;;;;5087004;28;20162;-68
2021/07/09 06:25:50;;;;;;;2.35;0.80;;;16.40;81.70;;;;;;5086415;28;20032;-67
2021/07/09 06:28:16;;;;;;;1.80;0.80;;;16.40;82.00;;;;;;5068727;28;20059;-67
2021/07/09 06:30:41;;;;;;;1.15;0.80;;;16.30;81.10;;;;;;5068882;28;20025;-67
2021/07/09 06:33:08;;;;;;;1.23;0.80;;;16.30;81.70;;;;;;5086746;28;20020;-68
2021/07/09 06:35:35;;;;;;;0.98;0.70;;;16.30;81.80;;;;;;5086797;28;20036;-67
2021/07/09 06:38:01;;;;;;;1.15;0.80;;;16.30;82.10;;;;;;5086255;28;20032;-69
2021/07/09 06:40:27;;;;;;;1.35;0.85;;;16.30;81.80;;;;;;5086323;28;20193;-68
2021/07/09 06:42:53;;;;;;;1.80;0.70;;;16.40;81.70;;;;;;5086215;28;20064;-68
2021/07/09 06:45:18;;;;;;;4.45;1.95;;;16.40;81.60;;;;;;5086192;28;20255;-69
2021/07/09 06:47:44;;;;;;;2.17;0.80;;;16.30;81.80;;;;;;5086588;28;20048;-68
2021/07/09 06:50:10;;;;;;;1.02;0.80;;;16.20;81.30;;;;;;5068650;28;20134;-69
2021/07/09 06:52:35;;;;;;;1.35;0.90;;;16.20;82.30;;;;;;5086458;28;20033;-68
2021/07/09 06:55:02;;;;;;;2.05;1.00;;;16.30;82.10;;;;;;5068173;28;20036;-68
2021/07/09 06:57:27;;;;;;;1.20;0.95;;;16.30;81.80;;;;;;5067334;28;20032;-69
2021/07/09 06:59:53;;;;;;;2.15;0.90;;;16.20;82.20;;;;;;5086442;28;20063;-69
2021/07/09 07:02:19;;;;;;;2.55;0.93;;;16.30;81.90;;;;;;5086313;28;20095;-68
2021/07/09 07:04:45;;;;;;;1.20;0.85;;;16.30;81.90;;;;;;5086101;28;20039;-70
2021/07/09 07:07:10;;;;;;;1.52;0.85;;;16.40;81.80;;;;;;5085888;28;20043;-68
2021/07/09 07:09:38;;;;;;;1.15;0.90;;;16.40;81.40;;;;;;5086033;28;20029;-67
2021/07/09 07:12:05;;;;;;;1.30;0.90;;;16.40;81.70;;;;;;5086231;28;20215;-69
2021/07/09 07:14:31;;;;;;;1.23;0.95;;;16.30;82.10;;;;;;5068583;28;20028;-69
2021/07/09 07:16:57;;;;;;;1.52;1.00;;;16.30;82.30;;;;;;5085548;28;20060;-68
2021/07/09 07:19:22;;;;;;;1.50;1.00;;;16.30;82.10;;;;;;5051090;28;20071;-68
2021/07/09 07:21:48;;;;;;;2.03;1.10;;;16.30;82.40;;;;;;5085856;28;20220;-70
2021/07/09 07:24:13;;;;;;;1.67;1.10;;;16.30;82.50;;;;;;5068183;28;20020;-67
2021/07/09 07:26:39;;;;;;;1.85;1.10;;;16.30;82.40;;;;;;5085390;28;20091;-67
2021/07/09 07:29:04;;;;;;;1.92;1.10;;;16.40;82.30;;;;;;5085811;28;20091;-69
2021/07/09 07:31:30;;;;;;;1.80;1.17;;;16.30;82.50;;;;;;5085699;28;20036;-68
2021/07/09 07:33:55;;;;;;;2.05;1.10;;;16.30;82.70;;;;;;5085245;28;20028;-68
2021/07/09 07:36:21;;;;;;;1.65;1.13;;;16.30;82.40;;;;;;5085060;28;20035;-69
2021/07/09 07:38:47;;;;;;;3.22;1.20;;;16.30;82.60;;;;;;5085633;28;20029;-67
2021/07/09 07:41:16;;;;;;;1.90;1.20;;;16.20;82.80;;;;;;5085520;28;20063;-67
2021/07/09 07:43:43;;;;;;;2.38;1.20;;;16.20;82.30;;;;;;5085326;28;20040;-66
2021/07/09 07:46:09;;;;;;;2.22;1.30;;;16.30;82.40;;;;;;5085033;28;20066;-66
2021/07/09 07:48:35;;;;;;;2.75;1.33;;;16.40;83.10;;;;;;5085238;28;20322;-65
2021/07/09 07:51:01;;;;;;;2.17;1.45;;;16.40;83.30;;;;;;5085621;28;20032;-66
2021/07/09 07:53:26;;;;;;;1.55;1.23;;;16.60;83.20;;;;;;5085223;28;20033;-65
2021/07/09 07:55:52;;;;;;;4.45;1.30;;;16.70;82.80;;;;;;5084841;28;20040;-66
2021/07/09 07:58:17;;;;;;;1.88;1.20;;;16.60;83.50;;;;;;5084781;28;20036;-66
2021/07/09 08:00:43;;;;;;;3.80;1.10;;;16.70;83.00;;;;;;5084719;28;20032;-67
2021/07/09 08:03:08;;;;;;;2.03;1.15;;;16.70;82.80;;;;;;5085440;28;20032;-67
2021/07/09 08:05:34;;;;;;;1.67;1.15;;;16.60;82.40;;;;;;5085015;28;20056;-67
2021/07/09 08:07:59;;;;;;;2.75;1.50;;;16.60;82.50;;;;;;5084733;28;20228;-67
2021/07/09 08:10:25;;;;;;;3.03;1.15;;;16.60;83.00;;;;;;5084540;28;20028;-67
2021/07/09 08:12:51;;;;;;;1.70;1.20;;;16.60;82.80;;;;;;5084501;28;20036;-68
2021/07/09 08:15:17;;;;;;;2.05;1.30;;;16.60;82.40;;;;;;5085160;28;20060;-68
2021/07/09 08:17:43;;;;;;;1.63;1.20;;;16.60;82.60;;;;;;5085022;28;20044;-68
2021/07/09 08:20:09;;;;;;;1.92;1.13;;;16.60;82.60;;;;;;5084480;28;20071;-68
2021/07/09 08:22:36;;;;;;;1.65;1.30;;;16.60;82.80;;;;;;5084423;28;20033;-67
2021/07/09 08:25:04;;;;;;;1.63;1.20;;;16.50;82.90;;;;;;5084627;28;20028;-67
2021/07/09 08:27:29;;;;;;;2.38;1.20;;;16.50;82.80;;;;;;5084736;28;20321;-68
2021/07/09 08:29:55;;;;;;;2.00;1.30;;;16.50;82.60;;;;;;5084971;28;20025;-67
2021/07/09 08:32:20;;;;;;;1.75;1.30;;;16.60;82.80;;;;;;5084181;28;20032;-67
2021/07/09 08:34:46;;;;;;;1.75;1.20;;;16.60;83.00;;;;;;5084426;28;20371;-67
2021/07/09 08:37:11;;;;;;;1.92;1.30;;;16.70;82.60;;;;;;5084154;28;20059;-67
2021/07/09 08:39:37;;;;;;;2.10;1.38;;;16.70;83.00;;;;;;5084230;28;20052;-67
2021/07/09 08:42:02;;;;;;;1.23;1.00;;;16.70;83.00;;;;;;5084762;28;20331;-67
2021/07/09 08:44:28;;;;;;;1.60;1.10;;;16.80;83.00;;;;;;5084444;28;20039;-67
2021/07/09 08:46:55;;;;;;;1.80;1.15;;;16.80;82.90;;;;;;5084336;28;20052;-67
2021/07/09 08:49:22;;;;;;;2.22;1.23;;;16.80;82.90;;;;;;5049747;28;20024;-67
2021/07/09 08:51:47;;;;;;;2.35;1.20;;;16.80;83.10;;;;;;5083915;28;20025;-67
2021/07/09 08:54:14;;;;;;;1.80;1.20;;;16.80;82.90;;;;;;5084358;28;20062;-67
2021/07/09 08:56:42;;;;;;;2.20;1.00;;;16.80;82.90;;;;;;5083590;28;20048;-67
2021/07/09 08:59:08;;;;;;;1.80;1.00;;;16.80;82.70;;;;;;5084258;28;20039;-67
2021/07/09 09:01:50;;;;;;;1.40;1.00;;;16.80;83.00;;;;;;5066309;28;20194;-67
2021/07/09 09:04:22;;;;;;;1.63;1.02;;;16.80;83.30;;;;;;5066246;28;20315;-68
2021/07/09 09:06:58;;;;;;;2.40;1.15;;;16.80;83.00;;;;;;5066366;28;20028;-67
2021/07/09 09:09:23;;;;;;;2.17;1.10;;;16.80;83.40;;;;;;5083632;28;20380;-67
2021/07/09 09:12:15;;;;;;;2.15;1.20;;;16.80;83.00;;;;;;5084426;28;20048;-67
2021/07/09 09:14:41;;;;;;;1.73;0.90;;;16.80;83.00;;;;;;5083616;28;20028;-67
2021/07/09 09:17:45;;;;;;;1.50;1.10;;;16.80;83.00;;;;;;5083532;28;20036;-67
2021/07/09 09:20:15;;;;;;;1.40;0.93;;;16.90;83.10;;;;;;4982967;28;20095;-67
2021/07/09 09:22:50;;;;;;;1.77;1.08;;;17.00;83.30;;;;;;4983449;28;20078;-67
2021/07/09 09:25:27;;;;;;;1.52;1.02;;;17.00;82.90;;;;;;5038839;28;20055;-67
2021/07/09 09:28:11;;;;;;;1.40;1.20;;;17.20;82.80;;;;;;5083475;28;20021;-68
2021/07/09 09:30:38;;;;;;;1.77;0.80;;;17.30;82.80;;;;;;5083227;28;20056;-67
2021/07/09 09:33:08;;;;;;;1.63;1.15;;;17.10;82.70;;;;;;5084081;28;20033;-67
2021/07/09 09:35:37;;;;;;;1.42;1.00;;;17.30;82.50;;;;;;5066162;28;20032;-67
2021/07/09 09:38:05;;;;;;;2.10;1.15;;;17.30;82.60;;;;;;5083630;28;20056;-67
2021/07/09 09:40:32;;;;;;;1.13;0.90;;;17.30;82.60;;;;;;5083580;28;20100;-68
2021/07/09 09:42:58;;;;;;;1.63;1.10;;;17.30;82.40;;;;;;5083332;28;20241;-68
2021/07/09 09:45:25;;;;;;;3.05;1.30;;;17.30;82.50;;;;;;5083729;28;20033;-66
2021/07/09 09:47:50;;;;;;;1.33;1.08;;;17.30;82.50;;;;;;5083770;28;20105;-68
2021/07/09 09:50:20;;;;;;;2.85;1.17;;;17.30;82.40;;;;;;5083907;28;20036;-69
2021/07/09 09:52:49;;;;;;;1.88;1.00;;;17.30;82.20;;;;;;5083379;28;20243;-68
2021/07/09 09:55:35;;;;;;;3.03;1.13;;;17.30;82.10;;;;;;5083233;28;20116;-69
2021/07/09 09:58:18;;;;;;;2.50;1.45;;;17.30;82.10;;;;;;5082400;28;20066;-69
2021/07/09 10:00:46;;;;;;;2.45;1.42;;;17.30;81.90;;;;;;5083388;28;20263;-68
2021/07/09 10:03:11;;;;;;;2.95;1.65;;;17.30;82.00;;;;;;5083907;28;20071;-69
2021/07/09 10:05:38;;;;;;;2.15;1.70;;;17.30;82.90;;;;;;5083611;28;20036;-68
2021/07/09 10:08:05;;;;;;;3.28;1.80;;;17.30;82.60;;;;;;5082937;28;20036;-69
2021/07/09 10:10:31;;;;;;;3.22;1.80;;;17.30;82.80;;;;;;5065297;28;20051;-68
2021/07/09 10:12:57;;;;;;;3.08;1.58;;;17.40;82.30;;;;;;5065291;28;20033;-70
2021/07/09 10:15:24;;;;;;;2.80;1.80;;;17.40;82.20;;;;;;5065237;28;20058;-70
2021/07/09 10:17:50;;;;;;;2.47;1.40;;;17.30;82.30;;;;;;5066115;28;20035;-70
2021/07/09 10:20:16;;;;;;;3.20;1.75;;;17.40;82.40;;;;;;5065421;28;20071;-69
2021/07/09 10:22:42;;;;;;;2.85;1.80;;;17.40;82.30;;;;;;5082949;28;20039;-70
2021/07/09 10:25:08;;;;;;;2.42;1.80;;;17.40;81.90;;;;;;5065396;28;20268;-68
2021/07/09 10:27:33;;;;;;;2.33;1.70;;;17.30;82.00;;;;;;5065095;28;20216;-70
2021/07/09 10:30:03;;;;;;;5.07;1.67;;;17.40;82.00;;;;;;5083352;28;20075;-70
2021/07/09 10:32:33;;;;;;;2.08;1.42;;;17.40;81.60;;;;;;5083752;28;20040;-72
2021/07/09 10:34:59;;;;;;;3.45;1.60;;;17.40;81.90;;;;;;5086981;28;20047;-70
2021/07/09 10:37:29;;;;;;;2.92;1.83;;;17.40;82.00;;;;;;5086486;28;20036;-68
2021/07/09 10:40:08;;;;;;;2.80;1.85;;;17.40;81.70;;;;;;5086232;28;20032;-69
2021/07/09 10:42:40;;;;;;;3.25;1.90;;;17.40;82.00;;;;;;5086036;28;20033;-70
2021/07/09 10:45:25;;;;;;;2.38;1.75;;;17.40;82.20;;;;;;5087243;28;20074;-69
2021/07/09 10:47:54;;;;;;;3.45;1.90;;;17.30;81.70;;;;;;5086590;28;20036;-70
2021/07/09 10:50:36;;;;;;;3.47;1.90;;;17.30;82.10;;;;;;5086551;28;20028;-69
2021/07/09 10:53:07;;;;;;;4.13;2.13;;;17.40;81.90;;;;;;5086559;28;20032;-69
2021/07/09 10:55:40;;;;;;;3.53;2.33;;;17.30;81.80;;;;;;5052663;28;20090;-69
2021/07/09 10:58:16;;;;;;;2.55;2.00;;;17.40;82.00;;;;;;5068555;28;20059;-69
2021/07/09 11:01:00;;;;;;;3.65;2.45;;;17.40;82.00;;;;;;5086263;28;20350;-69
2021/07/09 11:03:42;;;;;;;3.35;2.17;;;17.40;81.90;;;;;;5086010;28;20040;-68
2021/07/09 11:06:20;;;;;;;3.35;2.47;;;17.50;82.00;;;;;;5086689;28;20032;-69
2021/07/09 11:09:01;;;;;;;3.10;2.50;;;17.50;82.00;;;;;;5086578;28;20044;-69
2021/07/09 11:11:31;;;;;;;;;;;17.50;81.90;;;;;;5069443;28;20325;-68
2021/07/09 11:14:01;;;;;;;5.57;3.08;;;17.50;82.20;;;;;;5086016;28;19972;-69
2021/07/09 11:16:38;;;;;;;3.70;2.70;;;17.50;82.10;;;;;;5085781;28;20034;-69
2021/07/09 11:19:22;;;;;;;3.40;2.67;;;17.60;82.40;;;;;;5051975;28;20033;-69
2021/07/09 11:21:55;;;;;;;3.30;2.40;;;17.50;82.10;;;;;;5068243;28;20044;-69
2021/07/09 11:24:28;;;;;;;4.47;2.70;;;17.50;82.80;;;;;;5085441;28;20032;-69
2021/07/09 11:26:59;;;;;;;4.43;2.78;;;17.50;82.40;;;;;;5068087;28;20243;-68
2021/07/09 11:29:41;;;;;;;4.82;2.60;;;17.60;83.10;;;;;;5085814;28;20078;-67
2021/07/09 11:32:17;;;;;;;6.28;2.80;;;17.70;82.90;;;;;;5068106;28;20036;-68
2021/07/09 11:34:46;;;;;;;4.28;2.88;;;17.80;82.80;;;;;;5085519;28;20055;-68
2021/07/09 11:37:13;;;;;;;5.53;2.88;;;17.80;82.40;;;;;;5085633;28;20035;-68
2021/07/09 11:39:40;;;;;;;3.88;2.63;;;17.80;82.30;;;;;;5085038;28;20032;-68
2021/07/09 11:42:09;;;;;;;3.67;2.47;;;17.80;82.30;;;;;;5085579;28;20036;-68
2021/07/09 11:44:47;;;;;;;5.95;2.88;;;17.80;82.50;;;;;;5067344;28;20039;-68
2021/07/09 11:47:26;;;;;;;4.47;2.38;;;17.80;82.60;;;;;;5051133;28;20351;-68
2021/07/09 11:49:53;;;;;;;5.72;2.90;;;17.80;82.40;;;;;;5085070;28;20033;-68
2021/07/09 11:52:24;;;;;;;4.47;2.70;;;17.80;82.60;;;;;;5085014;28;20025;-68
2021/07/09 11:54:50;;;;;;;3.83;2.70;;;17.90;82.30;;;;;;5067286;28;20040;-69
2021/07/09 11:57:17;;;;;;;6.45;2.88;;;17.90;82.30;;;;;;5085271;28;20295;-69
2021/07/09 11:59:44;;;;;;;5.47;3.20;;;17.80;83.50;;;;;;5085377;28;20071;-69
2021/07/09 12:02:23;;;;;;;4.57;3.00;;;17.80;83.30;;;;;;5085118;28;20033;-70
2021/07/09 12:04:50;;;;;;;6.53;4.10;;;17.90;83.20;;;;;;5068151;28;20379;-69
2021/07/09 12:07:16;;;;;;;5.40;3.50;;;17.90;84.60;;;;;;5084776;28;20043;-67
2021/07/09 12:09:45;;;;;;;7.65;4.00;;;17.90;83.70;;;;;;5084503;28;20397;-68
2021/07/09 12:12:12;;;;;;;4.32;3.42;;;17.90;83.30;;;;;;5085034;28;20032;-68
2021/07/09 12:14:53;;;;;;;5.85;3.10;;;18.00;83.10;;;;;;5084968;28;20039;-68
2021/07/09 12:17:19;;;;;;;7.30;3.90;;;17.80;83.50;;;;;;5066421;28;20200;-68
2021/07/09 12:20:10;;;;;;;6.88;3.20;;;17.90;83.60;;;;;;5084696;28;20039;-68
2021/07/09 12:22:42;;;;;;;8.20;3.50;;;18.10;83.40;;;;;;5084333;28;20036;-68
2021/07/09 12:25:13;;;;;;;5.75;3.22;;;18.30;83.20;;;;;;5084329;28;20241;-69
2021/07/09 12:27:38;;;;;;;8.02;3.60;;;18.40;83.40;;;;;;5084623;28;20224;-68
2021/07/09 12:30:09;;;;;;;4.75;3.50;;;18.50;83.30;;;;;;5067370;28;20035;-68
2021/07/09 12:32:47;;;;;;;7.72;4.28;;;18.70;83.30;;;;;;5067049;28;20220;-69
2021/07/09 12:35:13;;;;;;;6.13;4.40;;;18.80;84.60;;;;;;5067484;28;20096;-68
2021/07/09 12:37:39;;;;;;;6.75;3.92;;;18.90;84.60;;;;;;5083947;28;20045;-70
2021/07/09 12:40:12;;;;;;;6.15;3.70;;;19.10;83.60;;;;;;5066521;28;20034;-69
2021/07/09 12:42:38;;;;;;;4.45;3.33;;;19.10;82.30;;;;;;5083909;28;20107;-70
2021/07/09 12:45:04;;;;;;;5.63;3.22;;;19.10;82.40;;;;;;5066893;28;20021;-70
2021/07/09 12:47:32;;;;;;;7.00;3.65;;;19.20;81.90;;;;;;5084656;28;20044;-69
2021/07/09 12:50:17;;;;;;;5.43;3.42;;;19.30;81.70;;;;;;5083850;28;20366;-71